Time;durP1;ratioP1;P1;durP2;ratioP2;P2;SDS_P1;SDS_P2;PMS_P1;PMS_P2;Temp;Humidity;BMP_temperature;BMP_pressure;BME280_temperature;BME280_humidity;BME280_pressure;Samples;Min_cycle;Max_cycle;Signal;HPM_P1;HPM_P2
2021/10/14 00:01:11;;;;;;;6.07;2.55;;;;;;;;;;4975387;28;20109;-82
2021/10/14 00:03:36;;;;;;;4.55;2.83;;;;;;;;;;4991217;28;20030;-82
2021/10/14 00:06:02;;;;;;;4.60;2.80;;;;;;;;;;4992195;28;20030;-83
2021/10/14 00:08:27;;;;;;;5.13;2.80;;;;;;;;;;4975562;28;20030;-82
2021/10/14 00:10:53;;;;;;;4.07;2.55;;;;;;;;;;4993990;28;20058;-82
2021/10/14 00:13:18;;;;;;;6.85;3.00;;;;;;;;;;4972748;28;20068;-82
2021/10/14 00:15:43;;;;;;;6.60;3.10;;;;;;;;;;4988942;28;20100;-82
2021/10/14 00:18:09;;;;;;;6.40;3.15;;;;;;;;;;4992554;28;20026;-82
2021/10/14 00:20:35;;;;;;;6.72;2.78;;;;;;;;;;4974437;28;20032;-82
2021/10/14 00:23:00;;;;;;;5.07;3.20;;;;;;;;;;4989977;28;20026;-82
2021/10/14 00:25:28;;;;;;;3.97;2.70;;;;;;;;;;4993728;28;20023;-81
2021/10/14 00:27:54;;;;;;;5.93;3.38;;;;;;;;;;4989098;28;20030;-81
2021/10/14 00:30:19;;;;;;;4.55;3.03;;;;;;;;;;4976566;28;20382;-81
2021/10/14 00:32:45;;;;;;;6.55;3.08;;;;;;;;;;4991281;28;21234;-81
2021/10/14 00:35:15;;;;;;;5.85;3.00;;;;;;;;;;4973606;28;20060;-82
2021/10/14 00:37:41;;;;;;;4.13;2.97;;;;;;;;;;4987538;28;20196;-82
2021/10/14 00:40:08;;;;;;;5.35;3.00;;;;;;;;;;4975827;28;20109;-81
2021/10/14 00:42:34;;;;;;;4.53;3.08;;;;;;;;;;4989705;28;20038;-81
2021/10/14 00:45:00;;;;;;;5.28;2.53;;;;;;;;;;4974889;28;20026;-82
2021/10/14 00:47:27;;;;;;;4.75;3.28;;;;;;;;;;4991780;28;20056;-83
2021/10/14 00:49:59;;;;;;;5.30;3.22;;;;;;;;;;4987533;28;20030;-82
2021/10/14 00:52:25;;;;;;;5.45;3.05;;;;;;;;;;4992657;28;20033;-82
2021/10/14 00:54:52;;;;;;;5.85;3.08;;;;;;;;;;4974498;28;20423;-82
2021/10/14 00:57:18;;;;;;;8.50;3.15;;;;;;;;;;4995991;28;20111;-82
2021/10/14 00:59:44;;;;;;;8.05;3.17;;;;;;;;;;4990665;28;20540;-81
2021/10/14 01:02:10;;;;;;;5.72;3.05;;;;;;;;;;4976702;28;20084;-81
2021/10/14 01:04:36;;;;;;;4.82;3.08;;;;;;;;;;4992114;28;20042;-82
2021/10/14 01:07:02;;;;;;;6.00;3.00;;;;;;;;;;4995418;28;20091;-81
2021/10/14 01:09:28;;;;;;;5.00;3.25;;;;;;;;;;4993419;28;20042;-82
2021/10/14 01:11:53;;;;;;;6.88;3.25;;;;;;;;;;4989515;28;20125;-82
2021/10/14 01:14:19;;;;;;;7.45;3.38;;;;;;;;;;4994159;28;20045;-82
2021/10/14 01:16:46;;;;;;;6.32;2.88;;;;;;;;;;4980596;28;20157;-81
2021/10/14 01:19:14;;;;;;;6.28;3.45;;;;;;;;;;4994875;28;20027;-83
2021/10/14 01:21:40;;;;;;;10.07;3.60;;;;;;;;;;4992182;28;20034;-83
2021/10/14 01:24:06;;;;;;;6.05;3.13;;;;;;;;;;4994693;28;20034;-83
2021/10/14 01:26:32;;;;;;;5.15;3.10;;;;;;;;;;4974658;28;20029;-83
2021/10/14 01:28:58;;;;;;;6.88;2.90;;;;;;;;;;4993164;28;20494;-83
2021/10/14 01:31:27;;;;;;;5.13;3.03;;;;;;;;;;4999194;28;20030;-82
2021/10/14 01:33:54;;;;;;;5.47;2.95;;;;;;;;;;4999115;28;20026;-83
2021/10/14 01:36:20;;;;;;;7.45;2.80;;;;;;;;;;4984350;28;20037;-83
2021/10/14 01:38:47;;;;;;;5.00;3.10;;;;;;;;;;4999318;28;20030;-83
2021/10/14 01:41:16;;;;;;;6.13;3.05;;;;;;;;;;5003560;28;20026;-83
2021/10/14 01:43:44;;;;;;;7.25;3.05;;;;;;;;;;4990300;28;20181;-83
2021/10/14 01:46:10;;;;;;;7.18;3.55;;;;;;;;;;5002063;28;20035;-84
2021/10/14 01:48:38;;;;;;;7.65;3.03;;;;;;;;;;5003926;28;20085;-84
2021/10/14 01:51:04;;;;;;;4.45;2.53;;;;;;;;;;4977993;28;20029;-82
2021/10/14 01:53:30;;;;;;;7.10;3.20;;;;;;;;;;4993522;28;20050;-82
2021/10/14 01:55:55;;;;;;;6.00;3.03;;;;;;;;;;4982864;28;20412;-82
2021/10/14 01:58:23;;;;;;;4.40;2.53;;;;;;;;;;4993895;28;20117;-82
2021/10/14 02:00:52;;;;;;;5.72;2.80;;;;;;;;;;4990326;28;20490;-81
2021/10/14 02:03:20;;;;;;;6.10;3.23;;;;;;;;;;4991430;28;20044;-82
2021/10/14 02:05:48;;;;;;;5.95;2.55;;;;;;;;;;4993697;28;20172;-81
2021/10/14 02:08:15;;;;;;;6.13;3.08;;;;;;;;;;4989283;28;20062;-81
2021/10/14 02:10:40;;;;;;;5.85;3.10;;;;;;;;;;4991055;28;20035;-80
2021/10/14 02:13:06;;;;;;;7.35;3.13;;;;;;;;;;4996749;28;20469;-82
2021/10/14 02:15:32;;;;;;;11.02;3.17;;;;;;;;;;4976961;28;20145;-82
2021/10/14 02:17:57;;;;;;;6.68;2.92;;;;;;;;;;4974094;28;20101;-80
2021/10/14 02:20:23;;;;;;;7.63;3.00;;;;;;;;;;4995234;28;20034;-82
2021/10/14 02:22:49;;;;;;;6.18;3.13;;;;;;;;;;4994333;28;20030;-82
2021/10/14 02:25:16;;;;;;;5.18;3.38;;;;;;;;;;4990664;28;20133;-82
2021/10/14 02:27:42;;;;;;;7.40;3.17;;;;;;;;;;4975993;28;20060;-82
2021/10/14 02:30:09;;;;;;;7.57;3.10;;;;;;;;;;4993734;28;20501;-82
2021/10/14 02:32:35;;;;;;;6.18;3.55;;;;;;;;;;4977778;28;20105;-82
2021/10/14 02:35:01;;;;;;;7.45;3.17;;;;;;;;;;4991878;28;20027;-81
2021/10/14 02:37:27;;;;;;;6.43;3.13;;;;;;;;;;4993087;28;20037;-82
2021/10/14 02:39:53;;;;;;;8.73;3.13;;;;;;;;;;4990004;28;20030;-82
2021/10/14 02:42:23;;;;;;;9.68;3.67;;;;;;;;;;4996960;28;20084;-81
2021/10/14 02:44:51;;;;;;;6.35;2.88;;;;;;;;;;5008541;28;20517;-82
2021/10/14 02:47:16;;;;;;;6.72;3.08;;;;;;;;;;4988959;28;20113;-81
2021/10/14 02:49:42;;;;;;;5.10;2.90;;;;;;;;;;4977613;28;20122;-81
2021/10/14 02:52:07;;;;;;;10.25;3.28;;;;;;;;;;4994250;28;20405;-81
2021/10/14 02:54:33;;;;;;;7.28;2.92;;;;;;;;;;4989624;28;20070;-80
2021/10/14 02:56:59;;;;;;;5.43;3.17;;;;;;;;;;4993170;28;20032;-82
2021/10/14 02:59:25;;;;;;;5.18;2.80;;;;;;;;;;4975350;28;20045;-81
2021/10/14 03:01:50;;;;;;;6.15;3.17;;;;;;;;;;4990848;28;20036;-81
2021/10/14 03:04:16;;;;;;;7.03;3.10;;;;;;;;;;4976422;28;20033;-81
2021/10/14 03:06:41;;;;;;;6.22;2.90;;;;;;;;;;4988861;28;20054;-82
2021/10/14 03:09:06;;;;;;;6.82;3.40;;;;;;;;;;4993243;28;20030;-82
2021/10/14 03:11:32;;;;;;;4.68;2.90;;;;;;;;;;4976616;28;20034;-81
2021/10/14 03:13:58;;;;;;;5.35;3.20;;;;;;;;;;4975165;28;20026;-81
2021/10/14 03:16:23;;;;;;;8.88;4.45;;;;;;;;;;4977703;28;20041;-81
2021/10/14 03:18:51;;;;;;;7.57;4.00;;;;;;;;;;4991774;28;20030;-82
2021/10/14 03:21:20;;;;;;;8.75;4.32;;;;;;;;;;4992701;28;20026;-82
2021/10/14 03:23:47;;;;;;;11.18;4.63;;;;;;;;;;4976016;28;20033;-82
2021/10/14 03:26:13;;;;;;;10.60;4.72;;;;;;;;;;4973284;28;20033;-82
2021/10/14 03:28:41;;;;;;;10.63;5.03;;;;;;;;;;4989245;28;20472;-81
2021/10/14 03:31:07;;;;;;;8.88;4.55;;;;;;;;;;4973325;28;20034;-81
2021/10/14 03:33:32;;;;;;;8.20;5.07;;;;;;;;;;4990477;28;20287;-81
2021/10/14 03:35:58;;;;;;;11.82;4.97;;;;;;;;;;4989005;28;20369;-81
2021/10/14 03:38:24;;;;;;;7.82;4.50;;;;;;;;;;4988412;28;20085;-82
2021/10/14 03:40:49;;;;;;;10.68;4.60;;;;;;;;;;4992005;28;20033;-81
2021/10/14 03:43:15;;;;;;;8.35;4.50;;;;;;;;;;4988718;28;20042;-81
2021/10/14 03:45:40;;;;;;;8.57;5.00;;;;;;;;;;4989609;28;20532;-81
2021/10/14 03:48:06;;;;;;;10.13;4.47;;;;;;;;;;4991163;28;20045;-81
2021/10/14 03:50:32;;;;;;;10.45;4.60;;;;;;;;;;4991598;28;20424;-81
2021/10/14 03:52:57;;;;;;;12.15;4.55;;;;;;;;;;4989229;28;20049;-82
2021/10/14 03:55:23;;;;;;;11.43;4.40;;;;;;;;;;4974766;28;20030;-81
2021/10/14 03:57:48;;;;;;;8.00;4.18;;;;;;;;;;4975077;28;20505;-81
2021/10/14 04:00:14;;;;;;;12.20;4.35;;;;;;;;;;4987728;28;20030;-81
2021/10/14 04:02:43;;;;;;;9.57;5.28;;;;;;;;;;4974227;28;20034;-81
2021/10/14 04:05:10;;;;;;;11.02;5.18;;;;;;;;;;4992099;28;20125;-80
2021/10/14 04:07:35;;;;;;;7.07;4.32;;;;;;;;;;4992638;28;20030;-80
2021/10/14 04:10:01;;;;;;;9.98;4.93;;;;;;;;;;4992409;28;20033;-81
2021/10/14 04:12:26;;;;;;;10.68;4.80;;;;;;;;;;4975089;28;20473;-80
2021/10/14 04:14:52;;;;;;;8.73;5.15;;;;;;;;;;4992751;28;20038;-81
2021/10/14 04:17:17;;;;;;;11.00;6.05;;;;;;;;;;4988702;28;20054;-81
2021/10/14 04:19:43;;;;;;;9.30;4.97;;;;;;;;;;4991491;28;20080;-81
2021/10/14 04:22:08;;;;;;;9.07;5.13;;;;;;;;;;4974123;28;20082;-80
2021/10/14 04:24:34;;;;;;;11.57;5.10;;;;;;;;;;4972552;28;20034;-80
2021/10/14 04:26:59;;;;;;;9.77;5.07;;;;;;;;;;4990840;28;20026;-80
2021/10/14 04:29:25;;;;;;;14.65;6.03;;;;;;;;;;4994102;28;20058;-81
2021/10/14 04:31:54;;;;;;;15.23;6.95;;;;;;;;;;4993003;28;20418;-82
2021/10/14 04:34:20;;;;;;;12.88;6.55;;;;;;;;;;4976552;28;20034;-81
2021/10/14 04:36:46;;;;;;;10.80;6.05;;;;;;;;;;4996338;28;20030;-81
2021/10/14 04:39:12;;;;;;;12.80;6.38;;;;;;;;;;4994341;28;20034;-82
2021/10/14 04:41:37;;;;;;;12.55;6.40;;;;;;;;;;4975738;28;20038;-81
2021/10/14 04:44:03;;;;;;;13.25;6.18;;;;;;;;;;4994488;28;20026;-81
2021/10/14 04:46:29;;;;;;;10.13;5.90;;;;;;;;;;4976712;28;20034;-78
2021/10/14 04:48:55;;;;;;;11.55;5.97;;;;;;;;;;4977305;28;20427;-79
2021/10/14 04:51:23;;;;;;;15.43;7.63;;;;;;;;;;4995735;28;20148;-78
2021/10/14 04:53:50;;;;;;;23.80;11.32;;;;;;;;;;4988209;28;20102;-81
2021/10/14 04:56:16;;;;;;;26.00;11.85;;;;;;;;;;4994311;28;20026;-79
2021/10/14 04:58:41;;;;;;;28.58;13.02;;;;;;;;;;4978535;28;20359;-79
2021/10/14 05:01:07;;;;;;;25.80;11.77;;;;;;;;;;4996088;28;20034;-80
2021/10/14 05:03:32;;;;;;;28.33;14.18;;;;;;;;;;4976297;28;20022;-79
2021/10/14 05:05:58;;;;;;;24.75;12.90;;;;;;;;;;4977955;28;20037;-79
2021/10/14 05:08:23;;;;;;;22.73;11.70;;;;;;;;;;4980259;28;20398;-80
2021/10/14 05:10:49;;;;;;;22.50;11.68;;;;;;;;;;4977035;28;20588;-80
2021/10/14 05:13:14;;;;;;;25.85;13.05;;;;;;;;;;4996497;28;20026;-79
2021/10/14 05:15:41;;;;;;;23.08;11.93;;;;;;;;;;4996680;28;20062;-80
2021/10/14 05:18:07;;;;;;;24.00;12.85;;;;;;;;;;4998062;28;20081;-81
2021/10/14 05:20:37;;;;;;;24.80;12.93;;;;;;;;;;4995146;28;20447;-80
2021/10/14 05:23:05;;;;;;;28.98;12.82;;;;;;;;;;4992437;28;20018;-79
2021/10/14 05:25:33;;;;;;;25.30;12.55;;;;;;;;;;4978812;28;20022;-80
2021/10/14 05:27:58;;;;;;;22.15;12.77;;;;;;;;;;4979211;28;20030;-79
2021/10/14 05:30:24;;;;;;;22.20;11.75;;;;;;;;;;4996325;28;20029;-80
2021/10/14 05:32:49;;;;;;;30.27;14.38;;;;;;;;;;4995243;28;20029;-79
2021/10/14 05:35:15;;;;;;;35.97;14.40;;;;;;;;;;4993736;28;20501;-80
2021/10/14 05:37:43;;;;;;;41.55;17.50;;;;;;;;;;4993775;28;20076;-80
2021/10/14 05:40:11;;;;;;;31.10;14.70;;;;;;;;;;4996961;28;20117;-81
2021/10/14 05:42:36;;;;;;;21.27;11.05;;;;;;;;;;4996233;28;20033;-80
2021/10/14 05:45:02;;;;;;;23.00;10.80;;;;;;;;;;4979062;28;20041;-79
2021/10/14 05:47:28;;;;;;;24.50;12.57;;;;;;;;;;5000048;28;20034;-79
2021/10/14 05:49:53;;;;;;;25.30;12.95;;;;;;;;;;4995909;28;20030;-78
2021/10/14 05:52:20;;;;;;;29.92;18.73;;;;;;;;;;4990405;28;20045;-79
2021/10/14 05:54:45;;;;;;;30.75;18.08;;;;;;;;;;4976586;28;20030;-79
2021/10/14 05:57:11;;;;;;;29.80;16.73;;;;;;;;;;4992545;28;20498;-78
2021/10/14 05:59:36;;;;;;;24.48;14.65;;;;;;;;;;4993773;28;20034;-78
2021/10/14 06:02:02;;;;;;;24.42;14.77;;;;;;;;;;5005471;28;20383;-80
2021/10/14 06:04:27;;;;;;;25.77;15.63;;;;;;;;;;5004751;28;20041;-79
2021/10/14 06:06:52;;;;;;;38.25;21.73;;;;;;;;;;4994851;28;20076;-78
2021/10/14 06:09:18;;;;;;;24.00;15.05;;;;;;;;;;5010550;23;20144;-62
2021/10/14 06:11:43;;;;;;;22.00;14.00;;;;;;;;;;5022298;28;20029;-60
2021/10/14 06:14:09;;;;;;;26.30;14.38;;;;;;;;;;5005365;28;20029;-59
2021/10/14 06:16:34;;;;;;;29.33;15.50;;;;;;;;;;5021189;28;20500;-60
2021/10/14 06:19:00;;;;;;;28.60;14.80;;;;;;;;;;5003868;28;20099;-60
2021/10/14 06:21:28;;;;;;;28.95;15.60;;;;;;;;;;5005532;28;20061;-59
2021/10/14 06:23:54;;;;;;;35.95;17.02;;;;;;;;;;4987458;28;20022;-58
2021/10/14 06:26:19;;;;;;;35.00;17.75;;;;;;;;;;5003311;28;20547;-60
2021/10/14 06:28:45;;;;;;;41.10;21.15;;;;;;;;;;5004274;28;20463;-60
2021/10/14 06:31:10;;;;;;;37.17;21.52;;;;;;;;;;5000972;28;20022;-58
2021/10/14 06:33:36;;;;;;;28.60;17.77;;;;;;;;;;5006408;28;20492;-61
2021/10/14 06:56:04;;;;;;;43.58;20.67;;;;;;;;;;5003252;23;20072;-78
2021/10/14 06:58:29;;;;;;;29.92;14.07;;;;;;;;;;4998793;28;20519;-82
2021/10/14 07:00:55;;;;;;;17.85;9.88;;;;;;;;;;4991252;28;20034;-80
2021/10/14 07:03:20;;;;;;;12.48;8.07;;;;;;;;;;5010261;28;20044;-79
2021/10/14 07:05:46;;;;;;;15.32;8.02;;;;;;;;;;4991307;28;20033;-80
2021/10/14 07:08:11;;;;;;;13.35;7.60;;;;;;;;;;4989781;28;20033;-79
2021/10/14 07:10:45;;;;;;;17.65;9.93;;;;;;;;;;5009645;28;20041;-80
2021/10/14 07:13:10;;;;;;;41.15;20.55;;;;;;;;;;5010522;28;20030;-79
2021/10/14 07:15:37;;;;;;;51.95;24.33;;;;;;;;;;4990535;28;20045;-79
2021/10/14 07:18:02;;;;;;;55.40;24.35;;;;;;;;;;5009758;28;20057;-80
2021/10/14 07:20:27;;;;;;;52.38;24.83;;;;;;;;;;4990986;28;20500;-78
2021/10/14 07:22:55;;;;;;;48.03;24.25;;;;;;;;;;4993273;28;20025;-80
2021/10/14 07:25:21;;;;;;;50.78;22.25;;;;;;;;;;5009680;28;20030;-79
2021/10/14 07:27:46;;;;;;;43.05;21.48;;;;;;;;;;5010486;28;20030;-79
2021/10/14 07:30:12;;;;;;;42.35;20.55;;;;;;;;;;5006752;28;20026;-79
2021/10/14 07:32:38;;;;;;;42.83;20.55;;;;;;;;;;4994098;28;20105;-79
2021/10/14 07:35:06;;;;;;;33.88;16.73;;;;;;;;;;4994544;28;20030;-80
2021/10/14 07:37:31;;;;;;;30.45;16.25;;;;;;;;;;5011104;28;20421;-80
2021/10/14 07:39:57;;;;;;;35.22;16.60;;;;;;;;;;5011963;28;20033;-79
2021/10/14 07:42:26;;;;;;;28.90;12.15;;;;;;;;;;5011004;28;20022;-79
2021/10/14 07:44:52;;;;;;;22.25;12.10;;;;;;;;;;4991840;28;20042;-79
2021/10/14 07:47:17;;;;;;;18.13;9.23;;;;;;;;;;5009279;28;20038;-78
2021/10/14 07:49:43;;;;;;;18.17;9.40;;;;;;;;;;5011705;28;20057;-79
2021/10/14 07:52:09;;;;;;;15.52;8.18;;;;;;;;;;5022834;28;20107;-80
2021/10/14 07:54:34;;;;;;;22.92;13.75;;;;;;;;;;5010361;28;20120;-79
2021/10/14 07:57:00;;;;;;;32.60;17.85;;;;;;;;;;5007129;28;20480;-79
2021/10/14 07:59:26;;;;;;;28.10;15.10;;;;;;;;;;5007847;28;20017;-80
2021/10/14 08:01:51;;;;;;;16.77;10.43;;;;;;;;;;5010374;28;20044;-80
2021/10/14 08:04:17;;;;;;;18.67;10.57;;;;;;;;;;5015147;28;20107;-79
2021/10/14 08:06:42;;;;;;;14.98;8.55;;;;;;;;;;5012108;28;20475;-80
2021/10/14 08:09:08;;;;;;;19.33;10.35;;;;;;;;;;5015000;28;20033;-78
2021/10/14 08:11:33;;;;;;;22.23;10.20;;;;;;;;;;5015365;28;20032;-80
2021/10/14 08:13:59;;;;;;;20.45;10.88;;;;;;;;;;5013140;28;20029;-78
2021/10/14 08:16:24;;;;;;;18.20;10.75;;;;;;;;;;5012304;28;20109;-79
2021/10/14 08:18:50;;;;;;;22.58;10.85;;;;;;;;;;5013353;28;20067;-80
2021/10/14 08:21:15;;;;;;;20.02;10.95;;;;;;;;;;4994761;28;20018;-80
2021/10/14 08:23:41;;;;;;;19.50;9.10;;;;;;;;;;5013521;28;20445;-80
2021/10/14 08:26:09;;;;;;;15.52;5.93;;;;;;;;;;5014139;28;20037;-78
2021/10/14 08:28:39;;;;;;;10.10;4.63;;;;;;;;;;5012430;28;20028;-80
2021/10/14 08:31:04;;;;;;;9.88;5.05;;;;;;;;;;4995572;28;20115;-79
2021/10/14 08:33:30;;;;;;;10.90;5.28;;;;;;;;;;4998141;28;20041;-80
2021/10/14 08:35:58;;;;;;;9.02;4.70;;;;;;;;;;5012079;28;20072;-79
2021/10/14 08:38:23;;;;;;;7.03;4.30;;;;;;;;;;5013594;28;20368;-80
2021/10/14 08:40:51;;;;;;;10.00;4.40;;;;;;;;;;4998196;28;20084;-80
2021/10/14 08:43:19;;;;;;;12.63;4.22;;;;;;;;;;5012187;28;20030;-79
2021/10/14 08:45:47;;;;;;;11.95;5.57;;;;;;;;;;4994634;28;20032;-77
2021/10/14 08:48:13;;;;;;;10.77;5.75;;;;;;;;;;5012077;28;20034;-78
2021/10/14 08:50:42;;;;;;;7.97;4.53;;;;;;;;;;4994422;28;20033;-78
2021/10/14 08:53:08;;;;;;;12.25;4.20;;;;;;;;;;4989249;28;20045;-77
2021/10/14 08:55:38;;;;;;;9.07;3.97;;;;;;;;;;5014412;28;20052;-79
2021/10/14 08:58:09;;;;;;;9.32;4.88;;;;;;;;;;5010701;28;20024;-80
2021/10/14 09:00:36;;;;;;;9.13;3.88;;;;;;;;;;5005009;28;20422;-78
2021/10/14 09:03:24;;;;;;;6.00;2.95;;;;;;;;;;5011946;28;20068;-79
2021/10/14 09:05:49;;;;;;;5.55;2.80;;;;;;;;;;4992817;28;20033;-78
2021/10/14 09:08:15;;;;;;;6.35;2.83;;;;;;;;;;4989853;28;20029;-78
2021/10/14 09:10:40;;;;;;;6.57;3.08;;;;;;;;;;5012532;28;20030;-78
2021/10/14 09:13:16;;;;;;;4.05;2.47;;;;;;;;;;4993680;28;20091;-78
2021/10/14 09:15:42;;;;;;;5.03;2.88;;;;;;;;;;5010693;28;20425;-78
2021/10/14 09:18:07;;;;;;;8.05;3.13;;;;;;;;;;5007873;28;20026;-77
2021/10/14 09:20:39;;;;;;;6.53;3.47;;;;;;;;;;5010792;28;20038;-78
2021/10/14 09:23:12;;;;;;;7.00;2.85;;;;;;;;;;5010028;28;20108;-78
2021/10/14 09:25:51;;;;;;;5.45;2.78;;;;;;;;;;5010179;28;20034;-78
2021/10/14 09:28:30;;;;;;;9.00;3.28;;;;;;;;;;4991774;28;20133;-80
2021/10/14 09:31:09;;;;;;;8.35;3.13;;;;;;;;;;4996138;28;20120;-80
2021/10/14 09:33:37;;;;;;;8.38;3.75;;;;;;;;;;4993612;28;20063;-78
2021/10/14 09:36:11;;;;;;;9.15;3.25;;;;;;;;;;5011561;28;20028;-79
2021/10/14 09:38:40;;;;;;;8.25;3.70;;;;;;;;;;5014738;28;20026;-80
2021/10/14 09:41:12;;;;;;;5.90;3.25;;;;;;;;;;4993961;28;20397;-79
2021/10/14 09:43:38;;;;;;;4.38;2.97;;;;;;;;;;5012536;28;20545;-79
2021/10/14 09:46:04;;;;;;;7.22;3.40;;;;;;;;;;5010196;28;20108;-78
2021/10/14 09:48:30;;;;;;;7.88;3.40;;;;;;;;;;5010358;28;21023;-78
2021/10/14 09:50:56;;;;;;;8.35;3.40;;;;;;;;;;4992453;28;20037;-79
2021/10/14 09:53:25;;;;;;;7.28;3.17;;;;;;;;;;4991895;28;20040;-79
2021/10/14 09:55:52;;;;;;;6.78;3.28;;;;;;;;;;5010192;28;20795;-81
2021/10/14 09:58:19;;;;;;;7.93;4.15;;;;;;;;;;5009843;28;20176;-79
2021/10/14 10:00:49;;;;;;;6.38;3.63;;;;;;;;;;4992802;28;20045;-80
2021/10/14 10:03:17;;;;;;;7.60;3.92;;;;;;;;;;5012280;28;20038;-80
2021/10/14 10:05:54;;;;;;;6.85;3.80;;;;;;;;;;5010897;28;20041;-79
2021/10/14 10:08:40;;;;;;;12.05;5.53;;;;;;;;;;4991609;28;20665;-79
2021/10/14 10:11:10;;;;;;;10.18;5.82;;;;;;;;;;4992493;28;20441;-80
2021/10/14 10:13:38;;;;;;;8.95;4.90;;;;;;;;;;5009300;28;20400;-79
2021/10/14 10:16:19;;;;;;;8.30;4.50;;;;;;;;;;4993772;28;20030;-79
2021/10/14 10:18:54;;;;;;;8.32;4.03;;;;;;;;;;5008936;28;20052;-80
2021/10/14 10:21:32;;;;;;;9.77;4.30;;;;;;;;;;5008529;28;20052;-80
2021/10/14 10:24:01;;;;;;;5.60;3.63;;;;;;;;;;5005997;28;20087;-80
2021/10/14 10:26:33;;;;;;;7.00;3.28;;;;;;;;;;5009175;28;20033;-79
2021/10/14 10:29:21;;;;;;;9.52;3.17;;;;;;;;;;5009542;28;20037;-78
2021/10/14 10:31:51;;;;;;;7.53;3.30;;;;;;;;;;5006780;28;20030;-79
2021/10/14 10:34:41;;;;;;;7.35;3.47;;;;;;;;;;5008480;28;20361;-80
2021/10/14 10:37:25;;;;;;;5.07;3.30;;;;;;;;;;5005053;28;20026;-79
2021/10/14 10:40:03;;;;;;;6.70;3.17;;;;;;;;;;4987920;28;20040;-79
2021/10/14 10:42:29;;;;;;;6.90;4.00;;;;;;;;;;4990535;28;20132;-80
2021/10/14 10:45:05;;;;;;;5.80;3.25;;;;;;;;;;5009839;28;20116;-79
2021/10/14 10:47:37;;;;;;;8.93;4.30;;;;;;;;;;5007707;28;20400;-79
2021/10/14 10:50:04;;;;;;;7.55;4.40;;;;;;;;;;4991300;28;20025;-80
2021/10/14 10:52:38;;;;;;;7.57;4.82;;;;;;;;;;5007388;28;20033;-79
2021/10/14 10:55:20;;;;;;;5.78;3.70;;;;;;;;;;4990071;28;20181;-80
2021/10/14 10:57:47;;;;;;;4.60;3.70;;;;;;;;;;4990793;28;20018;-79
2021/10/14 11:00:16;;;;;;;5.22;3.47;;;;;;;;;;5004616;28;20022;-79
2021/10/14 11:02:45;;;;;;;8.35;4.55;;;;;;;;;;4989590;28;20112;-79
2021/10/14 11:05:11;;;;;;;6.43;3.20;;;;;;;;;;5020130;28;20022;-80
2021/10/14 11:07:37;;;;;;;6.18;3.15;;;;;;;;;;5010604;28;20104;-81
2021/10/14 11:10:03;;;;;;;7.03;3.20;;;;;;;;;;4992683;28;20025;-81
2021/10/14 11:12:29;;;;;;;4.60;3.08;;;;;;;;;;4992312;28;20071;-81
2021/10/14 11:14:54;;;;;;;6.47;3.95;;;;;;;;;;5010446;28;20064;-80
2021/10/14 11:17:25;;;;;;;5.57;4.50;;;;;;;;;;5010069;28;20021;-81
2021/10/14 11:20:05;;;;;;;5.38;4.00;;;;;;;;;;4992344;28;20137;-81
2021/10/14 11:22:30;;;;;;;8.52;4.55;;;;;;;;;;4989510;28;20342;-82
2021/10/14 11:24:59;;;;;;;7.22;4.18;;;;;;;;;;4989930;28;20022;-83
2021/10/14 11:27:25;;;;;;;8.15;3.92;;;;;;;;;;5012651;28;20087;-81
2021/10/14 11:29:52;;;;;;;8.82;4.95;;;;;;;;;;5010145;28;20128;-80
2021/10/14 11:32:24;;;;;;;16.83;8.95;;;;;;;;;;4989985;28;20056;-80
2021/10/14 11:34:49;;;;;;;9.38;5.05;;;;;;;;;;4988565;28;20029;-80
2021/10/14 11:37:14;;;;;;;6.53;3.50;;;;;;;;;;5016522;28;20022;-79
2021/10/14 11:39:45;;;;;;;6.22;4.00;;;;;;;;;;5020707;28;20021;-79
2021/10/14 11:42:29;;;;;;;6.78;3.97;;;;;;;;;;4989024;28;20057;-78
2021/10/14 11:44:58;;;;;;;7.15;3.63;;;;;;;;;;5005430;28;20054;-79
2021/10/14 11:47:24;;;;;;;6.07;3.70;;;;;;;;;;4988928;28;20021;-79
2021/10/14 11:50:02;;;;;;;8.30;3.88;;;;;;;;;;5008023;28;20460;-78
2021/10/14 11:52:27;;;;;;;6.72;4.05;;;;;;;;;;4991960;28;20429;-80
2021/10/14 11:54:59;;;;;;;6.97;4.22;;;;;;;;;;4988329;28;20048;-81
2021/10/14 11:57:30;;;;;;;5.85;4.10;;;;;;;;;;4991227;28;20026;-80
2021/10/14 11:59:56;;;;;;;7.10;4.18;;;;;;;;;;4990093;28;20038;-82
2021/10/14 12:02:23;;;;;;;4.93;3.40;;;;;;;;;;5008305;28;20101;-80
2021/10/14 12:04:51;;;;;;;7.78;3.40;;;;;;;;;;4991925;28;20029;-80
2021/10/14 12:07:25;;;;;;;8.07;2.80;;;;;;;;;;4987420;28;20050;-81
2021/10/14 12:09:52;;;;;;;6.60;2.70;;;;;;;;;;5008165;28;20022;-78
2021/10/14 12:12:23;;;;;;;6.32;3.10;;;;;;;;;;5008746;28;20026;-79
2021/10/14 12:15:18;;;;;;;6.18;3.13;;;;;;;;;;5006634;28;20030;-79
2021/10/14 12:17:47;;;;;;;7.13;4.00;;;;;;;;;;4972840;28;20132;-80
2021/10/14 12:20:19;;;;;;;5.03;3.30;;;;;;;;;;5007391;28;20041;-80
2021/10/14 12:22:46;;;;;;;6.38;3.47;;;;;;;;;;5006202;28;20288;-78
2021/10/14 12:25:12;;;;;;;4.82;2.80;;;;;;;;;;4988736;28;20034;-79
2021/10/14 12:27:45;;;;;;;6.40;3.75;;;;;;;;;;4988814;28;20025;-79
2021/10/14 12:30:26;;;;;;;4.57;2.88;;;;;;;;;;4987883;28;20125;-79
2021/10/14 12:32:54;;;;;;;6.43;2.90;;;;;;;;;;5008962;28;20516;-80
2021/10/14 12:35:27;;;;;;;6.68;3.10;;;;;;;;;;4986536;28;20111;-78
2021/10/14 12:38:13;;;;;;;6.72;2.45;;;;;;;;;;5007872;28;20032;-80
2021/10/14 12:40:44;;;;;;;7.88;2.88;;;;;;;;;;5006091;28;20450;-80
2021/10/14 12:43:25;;;;;;;6.47;3.08;;;;;;;;;;5006055;28;20029;-80
2021/10/14 12:51:19;;;;;;;5.07;2.80;;;;;;;;;;5006554;28;20522;-80
2021/10/14 12:53:48;;;;;;;5.38;2.70;;;;;;;;;;4992365;28;20037;-84
2021/10/14 12:56:18;;;;;;;6.35;2.67;;;;;;;;;;5009207;28;20026;-80
2021/10/14 12:58:45;;;;;;;5.50;2.72;;;;;;;;;;4993447;28;20029;-82
2021/10/14 13:01:19;;;;;;;4.28;2.30;;;;;;;;;;4991385;28;20396;-82
2021/10/14 13:03:50;;;;;;;3.03;2.33;;;;;;;;;;5011778;28;20052;-82
2021/10/14 13:06:15;;;;;;;2.63;2.22;;;;;;;;;;4989469;28;20560;-83
2021/10/14 13:08:42;;;;;;;6.00;2.80;;;;;;;;;;5009631;28;20125;-83
2021/10/14 13:11:11;;;;;;;4.68;2.50;;;;;;;;;;5009966;28;20018;-81
2021/10/14 13:13:38;;;;;;;6.88;2.47;;;;;;;;;;5010868;28;20041;-80
2021/10/14 13:16:05;;;;;;;19.13;9.13;;;;;;;;;;5011463;28;20034;-80
2021/10/14 13:18:31;;;;;;;22.20;10.88;;;;;;;;;;5012140;28;20014;-79
2021/10/14 13:20:57;;;;;;;17.92;9.27;;;;;;;;;;5014935;28;20060;-79
2021/10/14 13:23:23;;;;;;;4.30;2.70;;;;;;;;;;5014136;28;20038;-79
2021/10/14 13:25:54;;;;;;;3.80;2.33;;;;;;;;;;5008685;28;20355;-79
2021/10/14 13:28:25;;;;;;;4.93;2.58;;;;;;;;;;4992008;28;20038;-79
2021/10/14 13:30:52;;;;;;;4.28;2.45;;;;;;;;;;5010576;28;20026;-80
2021/10/14 13:33:20;;;;;;;4.53;2.17;;;;;;;;;;4992174;28;20353;-80
2021/10/14 13:35:46;;;;;;;4.85;2.20;;;;;;;;;;4991400;28;20022;-80
2021/10/14 13:38:14;;;;;;;3.75;2.47;;;;;;;;;;4995695;28;20026;-81
2021/10/14 13:40:42;;;;;;;2.88;2.17;;;;;;;;;;5012869;28;20042;-79
2021/10/14 13:43:19;;;;;;;3.03;2.30;;;;;;;;;;5009519;28;20109;-79
2021/10/14 13:45:44;;;;;;;2.47;2.28;;;;;;;;;;5011333;28;20042;-79
2021/10/14 13:48:10;;;;;;;5.25;2.20;;;;;;;;;;5006976;28;20535;-78
2021/10/14 13:50:40;;;;;;;3.95;2.08;;;;;;;;;;4991385;28;20034;-79
2021/10/14 13:53:05;;;;;;;3.85;2.17;;;;;;;;;;4994706;28;20118;-78
2021/10/14 13:55:33;;;;;;;4.93;2.40;;;;;;;;;;4992801;28;20125;-78
2021/10/14 13:57:58;;;;;;;2.78;2.08;;;;;;;;;;4988905;28;20018;-82
2021/10/14 14:00:24;;;;;;;4.35;2.13;;;;;;;;;;5009270;28;20060;-80
2021/10/14 14:02:49;;;;;;;6.70;2.22;;;;;;;;;;4988959;28;20037;-80
2021/10/14 14:05:15;;;;;;;3.63;2.03;;;;;;;;;;5009313;28;20061;-78
2021/10/14 14:07:41;;;;;;;3.30;1.98;;;;;;;;;;4991186;28;20129;-81
2021/10/14 14:10:07;;;;;;;2.75;2.05;;;;;;;;;;5008103;28;20043;-79
2021/10/14 14:12:33;;;;;;;3.45;2.00;;;;;;;;;;5007919;28;20156;-79
2021/10/14 14:14:58;;;;;;;2.92;2.10;;;;;;;;;;4991346;28;20029;-80
2021/10/14 14:17:24;;;;;;;4.00;2.10;;;;;;;;;;5011047;28;20030;-79
2021/10/14 14:19:49;;;;;;;2.95;2.10;;;;;;;;;;5025481;28;20022;-79
2021/10/14 14:22:16;;;;;;;5.95;2.15;;;;;;;;;;4995116;28;20034;-80
2021/10/14 14:24:41;;;;;;;3.20;2.10;;;;;;;;;;5010818;28;20033;-81
2021/10/14 14:27:07;;;;;;;4.60;2.03;;;;;;;;;;5008554;28;20048;-79
2021/10/14 14:29:32;;;;;;;4.70;2.50;;;;;;;;;;5007955;28;20040;-79
2021/10/14 14:31:59;;;;;;;2.58;2.05;;;;;;;;;;4994670;28;20393;-80
2021/10/14 14:34:25;;;;;;;2.53;2.05;;;;;;;;;;4994351;28;20041;-80
2021/10/14 14:36:51;;;;;;;3.30;2.00;;;;;;;;;;5013674;28;20143;-80
2021/10/14 14:39:16;;;;;;;4.13;1.90;;;;;;;;;;5008723;28;20052;-81
2021/10/14 14:41:42;;;;;;;4.70;2.13;;;;;;;;;;5009551;28;20137;-80
2021/10/14 14:44:08;;;;;;;5.65;2.20;;;;;;;;;;4992770;28;20061;-79
2021/10/14 14:46:34;;;;;;;2.72;1.70;;;;;;;;;;4991670;28;20045;-80
2021/10/14 14:49:01;;;;;;;4.28;2.80;;;;;;;;;;5004210;28;20577;-79
2021/10/14 14:51:29;;;;;;;8.98;4.07;;;;;;;;;;5010102;28;20473;-80
2021/10/14 14:53:54;;;;;;;6.53;3.50;;;;;;;;;;5012478;28;20053;-80
2021/10/14 14:56:20;;;;;;;4.28;2.90;;;;;;;;;;4991738;28;20033;-81
2021/10/14 14:58:48;;;;;;;4.43;2.70;;;;;;;;;;5010055;28;20032;-78
2021/10/14 15:01:13;;;;;;;5.70;2.65;;;;;;;;;;5010422;28;20307;-80
2021/10/14 15:03:41;;;;;;;6.57;4.40;;;;;;;;;;5010079;28;20058;-80